Latest Weather Observations for Moorabbin Airport

IDV60801

Issued at 9:22 pm EST Thursday 20 June 2019 (issued every 10 minutes, with the page automatically refreshed every 10 minutes)

About weather observations | Map of weather stations | Latest weather observations for VIC | Other Formats
Station Details ID: 086077 Name: MOORABBIN AIRPORT Lat: -37.98 Lon: 145.10 Height: 12.1 m
Data from the previous 72 hours. | See also: Recent months at Moorabbin Airport
Date/Time
EST
Temp
°C
App
Temp
°C
Dew
Point
°C
Rel
Hum
%
Delta-T
°C
Wind Press
QNH
hPa
Press
MSL
hPa
Rain since
9am
mm
Dir  Spd
km/h
Gust
km/h
Spd
kts
Gust
kts
20/09:00pm 8.9 6.3 6.3 84 1.2 W 9 13 5 7 1026.3 1026.4 2.6
20/08:30pm 9.1 4.7 6.4 83 1.2 WSW 19 26 10 14 1026.4 1026.5 2.6
20/08:00pm 9.0 5.7 6.3 83 1.2 W 13 19 7 10 1026.3 1026.4 2.6
20/07:30pm 8.6 5.2 5.9 83 1.2 W 13 17 7 9 1026.0 1026.1 2.6
20/07:00pm 8.6 5.1 5.5 81 1.4 W 13 20 7 11 1025.8 1025.9 2.6
20/06:30pm 8.5 5.6 4.9 78 1.6 W 9 13 5 7 1025.5 1025.6 2.6
20/06:00pm 8.9 5.7 5.1 77 1.7 W 11 13 6 7 1025.2 1025.3 2.6
20/05:30pm 9.3 5.5 6.0 80 1.5 SW 15 20 8 11 1025.1 1025.2 2.6
20/05:00pm 9.1 6.6 6.4 83 1.2 W 9 13 5 7 1024.9 1025.0 2.6
20/04:30pm 9.0 7.3 6.1 82 1.3 WNW 4 11 2 6 1024.8 1024.9 2.6
20/04:00pm 9.3 7.0 5.9 79 1.5 W 7 9 4 5 1024.7 1024.8 2.6
20/03:30pm 9.4 6.5 6.3 81 1.4 SW 11 15 6 8 1024.6 1024.7 2.6
20/03:00pm 9.5 6.2 6.6 82 1.3 SSW 13 17 7 9 1024.7 1024.8 2.6
20/02:30pm 9.2 5.9 6.5 83 1.3 SSW 13 19 7 10 1024.7 1024.8 2.4
20/02:00pm 9.5 5.9 6.6 82 1.3 WSW 15 20 8 11 1024.7 1024.8 2.4
20/01:52pm 9.6 5.9 6.5 81 1.4 WSW 15 19 8 10 1024.8 1024.9 2.4
20/01:30pm 9.6 6.1 7.2 85 1.1 WSW 15 22 8 12 1024.8 1024.9 2.4
20/01:23pm 9.7 6.6 7.3 85 1.1 W 13 19 7 10 1024.8 1024.9 2.4
20/01:12pm 9.8 6.4 7.6 86 1.1 W 15 20 8 11 1024.9 1025.0 2.4
20/01:00pm 9.8 6.9 8.1 89 0.8 WNW 13 19 7 10 1025.0 1025.1 2.4
20/12:46pm 9.3 6.3 7.9 91 0.7 WNW 13 20 7 11 1025.2 1025.3 2.4
20/12:30pm 9.3 6.4 8.2 93 0.5 NW 13 22 7 12 1025.3 1025.4 2.4
20/12:16pm 9.2 6.0 8.4 95 0.4 NW 15 20 8 11 1025.5 1025.6 2.4
20/12:00pm 8.7 5.8 8.3 97 0.2 NW 13 20 7 11 1025.8 1025.9 2.4
20/11:50am 8.4 5.5 8.0 97 0.2 NNW 13 17 7 9 1025.8 1025.9 2.4
20/11:30am 8.3 5.4 8.0 98 0.1 NNW 13 17 7 9 1026.1 1026.2 2.2
20/11:00am 8.3 5.8 8.0 98 0.1 N 11 15 6 8 1026.4 1026.5 1.8
20/10:30am 8.2 5.3 8.1 99 0.0 NW 13 17 7 9 1026.4 1026.5 1.8
20/10:19am 8.1 5.9 8.0 99 0.0 N 9 15 5 8 1026.3 1026.4 1.8
20/10:15am 8.1 6.3 8.0 99 0.0 E 7 9 4 5 1026.3 1026.4 1.8
20/10:00am 8.0 6.4 7.9 99 0.0 SSE 6 7 3 4 1026.4 1026.5 1.6
20/09:47am 7.9 5.7 7.8 99 0.0 WSW 9 13 5 7 1026.4 1026.5 0.6
20/09:30am 8.2 6.1 8.1 99 0.0 NNW 9 17 5 9 1026.3 1026.4 0.4
20/09:20am 8.0 5.0 7.9 99 0.0 N 13 17 7 9 1026.2 1026.3 0.4
20/09:07am 8.1 5.6 8.0 99 0.0 NNW 11 13 6 7 1026.2 1026.3 0.0
20/09:00am 7.9 5.3 7.8 99 0.0 NNW 11 13 6 7 1026.2 1026.3 12.4
20/08:30am 7.5 4.8 7.2 98 0.1 NNW 11 15 6 8 1026.2 1026.3 12.0
20/08:00am 7.2 4.8 6.9 98 0.1 NNW 9 13 5 7 1026.2 1026.3 12.0
20/07:34am 6.9 5.0 6.6 98 0.1 N 6 9 3 5 1026.1 1026.2 11.8
20/07:30am 6.8 4.9 6.5 98 0.1 N 6 7 3 4 1026.1 1026.2 11.8
20/07:28am 6.8 4.7 6.5 98 0.1 NNW 7 9 4 5 1026.1 1026.2 11.8
20/07:00am 6.9 4.0 6.6 98 0.1 N 11 13 6 7 1025.8 1025.9 10.0
20/06:46am 6.9 4.8 6.5 97 0.2 NNW 7 11 4 6 1025.8 1025.9 9.8
20/06:30am 6.8 4.3 6.4 97 0.2 N 9 11 5 6 1025.8 1025.9 9.4
20/06:11am 6.8 3.9 6.4 97 0.2 N 11 15 6 8 1025.5 1025.6 9.2
20/06:00am 6.7 4.1 6.3 97 0.2 N 9 11 5 6 1025.6 1025.7 9.0
20/05:30am 6.7 4.1 6.1 96 0.3 N 9 13 5 7 1025.3 1025.4 9.0
20/05:16am 6.7 3.7 6.1 96 0.3 N 11 13 6 7 1025.2 1025.3 9.0
20/05:00am 6.8 4.2 6.2 96 0.3 NNW 9 15 5 8 1025.2 1025.3 8.8
20/04:52am 6.7 4.5 6.1 96 0.3 NNW 7 9 4 5 1025.3 1025.4 8.0
20/04:30am 6.6 3.6 6.0 96 0.3 N 11 13 6 7 1025.3 1025.4 7.8
20/04:00am 6.7 3.7 6.0 95 0.3 N 11 13 6 7 1025.3 1025.4 7.8
20/03:30am 6.0 2.8 5.1 94 0.4 N 11 13 6 7 1025.4 1025.5 7.8
20/03:00am 6.8 4.2 5.9 94 0.4 N 9 11 5 6 1025.5 1025.6 7.8
20/02:30am 6.7 4.0 5.5 92 0.5 N 9 9 5 5 1025.6 1025.7 7.8
20/02:00am 7.6 6.7 6.2 91 0.6 CALM 0 4 0 2 1025.7 1025.8 7.6
20/01:51am 7.8 5.8 6.4 91 0.6 NNW 6 11 3 6 1025.7 1025.8 7.6
20/01:30am 7.8 6.6 6.3 90 0.7 WNW 2 7 1 4 1025.8 1025.9 6.8
20/01:22am 7.9 5.7 6.4 90 0.7 NNW 7 9 4 5 1025.9 1026.0 6.0
20/01:00am 7.9 6.3 6.5 91 0.6 NW 4 6 2 3 1026.1 1026.2 5.6
20/12:44am 7.6 5.1 6.4 92 0.5 W 9 15 5 8 1025.9 1026.0 5.4
20/12:30am 7.3 4.0 6.4 94 0.4 WNW 13 24 7 13 1025.9 1026.0 5.2
20/12:23am 6.9 4.3 6.0 94 0.4 WNW 9 24 5 13 1026.0 1026.1 4.2
20/12:00am 7.2 4.6 6.3 94 0.4 NNW 9 11 5 6 1026.1 1026.2 3.2
 
Date/Time
EST
Temp
°C
App
Temp
°C
Dew
Point
°C
Rel
Hum
%
Delta-T
°C
Wind Press
QNH
hPa
Press
MSL
hPa
Rain since
9am
mm
Dir  Spd
km/h
Gust
km/h
Spd
kts
Gust
kts
19/11:30pm 7.7 5.8 6.6 93 0.5 NNW 6 7 3 4 1026.1 1026.2 3.0
19/11:00pm 8.1 6.1 7.0 93 0.5 NNW 7 9 4 5 1026.2 1026.3 3.0
19/10:30pm 7.2 4.6 6.0 92 0.5 NW 9 9 5 5 1026.3 1026.4 3.0
19/10:00pm 8.0 5.5 6.6 91 0.6 N 9 11 5 6 1026.2 1026.3 3.0
19/09:51pm 8.3 6.4 6.9 91 0.7 N 6 7 3 4 1026.2 1026.3 3.0
19/09:33pm 8.4 6.6 7.0 91 0.7 N 6 7 3 4 1026.2 1026.3 2.6
19/09:30pm 8.3 6.4 6.9 91 0.7 N 6 7 3 4 1026.2 1026.3 2.4
19/09:00pm 8.0 6.1 6.5 90 0.7 NE 6 7 3 4 1026.3 1026.4 2.0
19/08:30pm 7.6 5.3 5.9 89 0.8 NW 7 11 4 6 1026.3 1026.4 2.0
19/08:00pm 8.2 5.7 6.5 89 0.8 NW 9 9 5 5 1026.3 1026.4 2.0
19/07:37pm 8.5 6.1 6.8 89 0.8 NW 9 13 5 7 1026.3 1026.4 2.0
19/07:30pm 8.5 6.4 6.8 89 0.8 NW 7 11 4 6 1026.2 1026.3 2.0
19/07:24pm 8.5 6.4 6.8 89 0.8 W 7 11 4 6 1026.3 1026.4 1.8
19/07:00pm 7.8 5.7 5.8 87 0.9 NNW 6 7 3 4 1026.1 1026.2 1.4
19/06:30pm 8.5 6.4 6.0 84 1.1 N 6 7 3 4 1026.1 1026.2 1.4
19/06:11pm 9.3 8.5 6.4 82 1.3 CALM 0 0 0 0 1026.2 1026.3 1.2
19/06:00pm 9.3 8.4 6.2 81 1.4 CALM 0 0 0 0 1026.2 1026.3 0.2
19/05:30pm 8.9 6.7 5.5 79 1.5 W 6 7 3 4 1026.0 1026.1 0.2
19/05:00pm 9.2 6.8 5.4 77 1.7 WNW 7 13 4 7 1025.8 1025.9 0.2
19/04:30pm 9.8 7.1 5.8 76 1.8 W 9 13 5 7 1025.9 1026.0 0.2
19/04:00pm 10.4 6.9 5.6 72 2.2 W 13 20 7 11 1025.8 1025.9 0.2
19/03:30pm 10.7 7.3 5.7 71 2.3 W 13 19 7 10 1025.7 1025.8 0.2
19/03:00pm 10.7 7.4 6.3 74 2.0 W 13 20 7 11 1025.7 1025.8 0.2
19/02:30pm 10.6 6.9 6.2 74 2.0 W 15 20 8 11 1025.6 1025.7 0.2
19/02:00pm 11.2 7.7 7.1 76 1.9 W 15 20 8 11 1025.7 1025.8 0.2
19/01:30pm 10.3 6.6 6.5 77 1.8 WSW 15 22 8 12 1025.8 1025.9 0.2
19/01:00pm 10.7 6.7 6.6 76 1.9 W 17 28 9 15 1026.0 1026.1 0.2
19/12:30pm 10.5 6.6 7.0 79 1.7 W 17 22 9 12 1026.1 1026.2 0.2
19/12:00pm 10.4 6.7 7.8 84 1.2 WNW 17 20 9 11 1026.2 1026.3 0.2
19/11:30am 9.5 6.8 7.3 86 1.0 WNW 11 15 6 8 1026.5 1026.6 0.2
19/11:25am 9.4 6.7 7.2 86 1.0 W 11 15 6 8 1026.5 1026.6 0.2
19/11:10am 8.8 5.1 6.1 83 1.2 W 15 22 8 12 1026.6 1026.7 0.2
19/11:04am 9.0 5.3 6.3 83 1.2 WSW 15 22 8 12 1026.6 1026.7 0.0
19/11:00am 9.1 5.8 6.4 83 1.2 W 13 19 7 10 1026.6 1026.7 0.0
19/10:40am 9.1 5.0 6.4 83 1.2 WNW 17 28 9 15 1026.6 1026.7 0.0
19/10:30am 9.9 6.9 7.5 85 1.1 W 13 20 7 11 1026.5 1026.6 0.0
19/10:21am 9.2 6.3 6.6 84 1.2 W 11 17 6 9 1026.4 1026.5 0.0
19/10:00am 9.1 6.2 6.7 85 1.1 NNW 11 17 6 9 1026.2 1026.3 0.0
19/09:36am 8.9 5.6 6.5 85 1.1 WNW 13 20 7 11 1026.2 1026.3 0.0
19/09:30am 8.9 5.3 6.7 86 1.0 WNW 15 22 8 12 1026.2 1026.3 0.0
19/09:00am 8.4 5.1 6.4 87 0.9 WNW 13 17 7 9 1025.9 1026.0 6.2
19/08:30am 7.7 4.4 6.2 90 0.7 WNW 13 19 7 10 1025.6 1025.7 6.2
19/08:00am 7.4 4.4 5.9 90 0.7 NW 11 15 6 8 1025.3 1025.4 6.2
19/07:50am 7.4 4.4 5.9 90 0.7 WNW 11 17 6 9 1025.2 1025.3 6.2
19/07:30am 7.3 3.8 5.6 89 0.8 NW 13 19 7 10 1025.0 1025.1 6.0
19/07:00am 7.1 3.6 5.3 88 0.8 NNW 13 19 7 10 1024.6 1024.7 6.0
19/06:30am 7.3 3.8 5.6 89 0.8 NW 13 17 7 9 1024.3 1024.4 6.0
19/06:27am 7.3 4.2 5.6 89 0.8 NW 11 17 6 9 1024.3 1024.4 6.0
19/06:05am 6.8 3.2 5.0 88 0.8 NW 13 17 7 9 1024.1 1024.2 6.0
19/06:00am 6.9 3.3 5.1 88 0.8 NNW 13 19 7 10 1024.0 1024.1 6.0
19/05:47am 6.7 3.8 4.9 88 0.8 NW 9 13 5 7 1023.9 1024.0 5.8
19/05:30am 6.9 4.0 4.9 87 0.9 NNW 9 13 5 7 1023.6 1023.7 5.8
19/05:00am 7.2 4.0 4.9 85 1.0 NW 11 17 6 9 1023.5 1023.6 5.8
19/04:30am 7.6 4.8 5.1 84 1.1 NW 9 15 5 8 1023.3 1023.4 5.2
19/04:00am 8.1 5.4 5.6 84 1.1 NW 9 17 5 9 1023.2 1023.3 5.2
19/03:30am 7.8 5.4 5.4 85 1.1 NW 7 13 4 7 1023.3 1023.4 5.2
19/03:07am 7.6 4.8 5.1 84 1.1 NW 9 13 5 7 1023.4 1023.5 5.2
19/03:00am 7.8 5.1 5.4 85 1.1 NW 9 11 5 6 1023.4 1023.5 5.2
19/02:30am 7.3 4.8 4.8 84 1.1 NW 7 11 4 6 1023.5 1023.6 5.2
19/02:12am 7.5 4.7 5.0 84 1.1 NW 9 13 5 7 1023.4 1023.5 5.2
19/02:00am 7.7 4.5 5.2 84 1.1 NW 11 17 6 9 1023.3 1023.4 5.2
19/01:30am 7.6 3.9 4.7 82 1.3 NW 13 17 7 9 1023.1 1023.2 5.2
19/01:00am 8.6 5.9 5.7 82 1.3 WNW 9 15 5 8 1023.3 1023.4 5.2
19/12:30am 8.2 5.4 5.3 82 1.3 W 9 15 5 8 1023.2 1023.3 5.2
19/12:00am 8.5 5.0 5.4 81 1.4 W 13 22 7 12 1023.1 1023.2 5.2
 
Date/Time
EST
Temp
°C
App
Temp
°C
Dew
Point
°C
Rel
Hum
%
Delta-T
°C
Wind Press
QNH
hPa
Press
MSL
hPa
Rain since
9am
mm
Dir  Spd
km/h
Gust
km/h
Spd
kts
Gust
kts
18/11:30pm 8.0 4.4 4.9 81 1.4 W 13 20 7 11 1023.2 1023.3 5.2
18/11:00pm 8.0 4.6 4.0 76 1.7 W 11 17 6 9 1022.9 1023.0 5.2
18/10:30pm 8.5 3.6 5.3 80 1.4 SW 20 28 11 15 1023.0 1023.1 5.2
18/10:00pm 8.9 4.2 5.1 77 1.7 W 19 26 10 14 1022.6 1022.7 5.0
18/09:30pm 9.1 4.4 5.3 77 1.7 WNW 19 30 10 16 1022.3 1022.4 5.0
18/09:00pm 9.2 4.9 5.4 77 1.7 W 17 24 9 13 1022.0 1022.1 5.0
18/08:30pm 9.0 5.2 5.9 81 1.4 WNW 15 22 8 12 1021.7 1021.8 5.0
18/08:00pm 9.1 6.1 6.2 82 1.3 WNW 11 19 6 10 1021.4 1021.5 5.0
18/07:30pm 9.3 6.4 6.7 84 1.2 WNW 11 17 6 9 1021.2 1021.3 5.0
18/07:00pm 8.8 6.2 6.3 84 1.1 NW 9 15 5 8 1021.0 1021.1 5.0
18/06:30pm 9.1 6.2 6.5 84 1.2 WNW 11 15 6 8 1020.8 1020.9 5.0
18/06:00pm 9.4 5.0 6.5 82 1.3 W 19 30 10 16 1020.3 1020.4 5.0
18/05:30pm 9.4 6.2 6.8 84 1.2 WNW 13 19 7 10 1020.0 1020.1 5.0
18/05:00pm 9.4 6.6 6.8 84 1.2 WNW 11 20 6 11 1019.6 1019.7 5.0
18/04:30pm 9.2 6.4 6.8 85 1.1 WNW 11 17 6 9 1019.5 1019.6 5.0
18/04:00pm 9.0 6.1 6.6 85 1.1 WNW 11 15 6 8 1019.1 1019.2 4.8
18/03:30pm 8.8 4.4 6.4 85 1.1 WSW 19 28 10 15 1019.1 1019.2 4.4
18/03:00pm 9.0 3.3 6.6 85 1.1 WSW 26 39 14 21 1018.8 1018.8 3.0
18/02:41pm 9.3 3.3 7.1 86 1.0 WSW 28 43 15 23 1018.5 1018.5 2.4
18/02:30pm 9.1 2.2 7.1 87 0.9 WSW 33 52 18 28 1018.3 1018.3 2.4
18/02:28pm 9.4 2.7 7.3 87 1.0 WSW 32 52 17 28 1018.3 1018.3 2.4
18/02:16pm 9.6 3.7 7.4 86 1.0 W 28 46 15 25 1018.1 1018.1 2.0
18/02:00pm 9.8 3.7 6.7 81 1.4 W 28 46 15 25 1017.7 1017.7 1.6
18/01:57pm 10.3 4.2 6.8 79 1.6 W 28 46 15 25 1017.7 1017.7 1.4
18/01:53pm 10.7 4.9 6.3 74 2.1 W 26 46 14 25 1017.5 1017.5 1.0
18/01:30pm 12.2 6.9 6.9 70 2.5 WNW 24 37 13 20 1017.3 1017.3 0.4
18/01:00pm 12.7 7.5 7.4 70 2.6 WNW 24 35 13 19 1017.2 1017.2 0.4
18/12:30pm 12.7 7.6 7.6 71 2.5 WNW 24 33 13 18 1017.1 1017.1 0.4
18/12:00pm 11.7 7.0 7.8 77 1.9 NNW 22 39 12 21 1017.1 1017.1 0.4
18/11:30am 11.3 7.4 8.5 83 1.4 NNW 19 24 10 13 1017.3 1017.3 0.4
18/11:00am 10.8 6.7 7.9 82 1.4 N 19 24 10 13 1017.5 1017.5 0.4
18/10:30am 11.0 6.9 7.7 80 1.6 NNW 19 28 10 15 1017.5 1017.5 0.2
18/10:00am 11.0 6.5 6.9 76 1.9 NNW 20 28 11 15 1017.6 1017.6 0.0
18/09:30am 10.9 6.0 6.8 76 1.9 NNW 22 33 12 18 1017.1 1017.1 0.0
18/09:00am 10.8 4.7 6.6 75 2.0 NNW 28 37 15 20 1016.7 1016.7 0.0
18/08:30am 11.0 4.5 6.6 74 2.1 NNW 30 43 16 23 1016.4 1016.4 0.0
18/08:17am 11.1 5.0 6.6 74 2.1 N 28 46 15 25 1016.3 1016.3 0.0
18/08:00am 11.0 5.7 6.7 75 2.0 N 24 32 13 17 1016.3 1016.3 0.0
18/07:30am 10.7 5.0 6.5 75 2.0 N 26 33 14 18 1016.0 1016.0 0.0
18/07:00am 10.9 5.2 6.5 74 2.1 N 26 37 14 20 1016.1 1016.1 0.0
18/06:30am 11.0 4.9 6.7 75 2.0 N 28 39 15 21 1016.0 1016.0 0.0
18/06:00am 11.3 5.2 6.8 74 2.1 N 28 41 15 22 1016.0 1016.0 0.0
18/05:30am 11.2 4.3 7.3 77 1.9 N 33 44 18 24 1015.8 1015.8 0.0
18/05:00am 11.5 4.2 7.0 74 2.1 N 35 50 19 27 1016.1 1016.1 0.0
18/04:30am 11.8 5.9 7.5 75 2.1 NNW 28 41 15 22 1016.5 1016.5 0.0
18/04:00am 11.5 7.3 7.4 76 2.0 NNW 19 24 10 13 1016.8 1016.8 0.0
18/03:30am 10.5 7.7 7.0 79 1.7 N 11 17 6 9 1017.0 1017.0 0.0
18/03:00am 10.7 5.9 7.2 79 1.7 N 22 30 12 16 1016.8 1016.8 0.0
18/02:30am 10.5 6.2 7.2 80 1.6 NNE 19 28 10 15 1017.2 1017.2 0.0
18/02:00am 10.5 5.2 7.0 79 1.7 NNE 24 32 13 17 1017.4 1017.4 0.0
18/01:30am 10.5 4.8 6.8 78 1.7 NNE 26 35 14 19 1017.3 1017.3 0.0
18/01:00am 9.9 4.9 6.6 80 1.5 NNE 22 28 12 15 1017.7 1017.7 0.0
18/12:30am 10.0 6.0 6.5 79 1.6 NNE 17 22 9 12 1018.2 1018.2 0.0
18/12:00am 10.4 5.9 6.9 79 1.6 N 20 28 11 15 1018.4 1018.4 0.0
 
Date/Time
EST
Temp
°C
App
Temp
°C
Dew
Point
°C
Rel
Hum
%
Delta-T
°C
Wind Press
QNH
hPa
Press
MSL
hPa
Rain since
9am
mm
Dir  Spd
km/h
Gust
km/h
Spd
kts
Gust
kts
17/11:30pm 10.0 5.6 6.5 79 1.6 N 19 22 10 12 1018.7 1018.7 0.0
17/11:00pm 10.3 5.8 6.8 79 1.6 N 20 26 11 14 1018.9 1018.9 0.0
17/10:30pm 10.1 5.5 6.6 79 1.6 N 20 28 11 15 1019.0 1019.1 0.0
17/10:00pm 10.2 6.3 6.9 80 1.6 N 17 22 9 12 1019.4 1019.5 0.0
17/09:30pm 10.4 6.1 7.1 80 1.6 N 19 24 10 13 1019.7 1019.8 0.0

Other formats

Comma delimited format used in spreadsheet applications
http://www.bom.gov.au/fwo/IDV60801/IDV60801.94870.axf

JavaScript Object Notation format (JSON) in row-major order
http://www.bom.gov.au/fwo/IDV60801/IDV60801.94870.json

Data quality

Most of these data are generated automatically and are frequently updated. Quality checks on data are not normally performed. It is possible for incorrect values to appear. Refer to information at About Latest Weather Observations and please check the disclaimer before using these data.